Main page
METAR-TAF:

METAR-TAF

Airports :

Skagit Regional Airport

Burlington / Mount Vernon, Washington, United States

latitude: 48-28-15N, longitude: 122-25-15W, elevation: 44 m

Current weather observation

The report was made 24 minutes ago, at 18:55 UTC
Calm wind
Temperature 19°C
Humidity 83%
Pressure 1017 hPa
Visibility: 16.1 km
Clear sky

METAR: KBVS 191855Z AUTO 00000KT 10SM CLR 19/16 A3002 RMK A01

Time: 12:19 (19:19 UTC)


TAF: missing

Weather observations and forecasts of more than 4000 airports (METAR and TAF reports).

The available stations are represented by yellow and red dots on the map.

Hover mouse over dot to see the name of the station.

Then click to see weather observations and forecasts.

To change the map : click on the green buttons with a black cross to zoom in, on the green button with a dash to zoom out, or on the green arrows for adjacent maps.


METAR-TAF: